Time;durP1;ratioP1;P1;durP2;ratioP2;P2;SDS_P1;SDS_P2;PMS_P1;PMS_P2;Temp;Humidity;BMP_temperature;BMP_pressure;BME280_temperature;BME280_humidity;BME280_pressure;Samples;Min_cycle;Max_cycle;Signal;HPM_P1;HPM_P2
2023/03/04 00:02:06;;;;;;;;;2.00;0.50;;;;;6.76;67.02;102710.75;5009232;28;11071;-64
2023/03/04 00:04:33;;;;;;;;;0.00;0.00;;;;;6.78;66.19;102724.88;5011546;28;10979;-65
2023/03/04 00:06:59;;;;;;;;;1.25;0.00;;;;;6.78;66.80;102707.97;5028655;28;11029;-66
2023/03/04 00:09:26;;;;;;;;;1.50;1.50;;;;;6.72;66.50;102716.50;4994240;28;11248;-64
2023/03/04 00:11:52;;;;;;;;;0.25;0.25;;;;;6.71;66.06;102718.31;5002916;28;11037;-63
2023/03/04 00:14:19;;;;;;;;;1.25;1.00;;;;;6.62;65.68;102708.34;5011391;28;10980;-67
2023/03/04 00:16:45;;;;;;;;;1.00;1.00;;;;;6.60;66.62;102719.19;5013093;28;11313;-65
2023/03/04 00:19:12;;;;;;;;;4.00;0.50;;;;;6.61;66.30;102712.84;5012170;28;11207;-65
2023/03/04 00:21:38;;;;;;;;;2.50;2.50;;;;;6.61;66.26;102718.22;5013566;28;11191;-64
2023/03/04 00:24:05;;;;;;;;;1.00;1.00;;;;;6.58;66.33;102720.28;5011923;28;11176;-65
2023/03/04 00:26:32;;;;;;;;;0.00;0.00;;;;;6.61;66.31;102712.84;5011727;28;11125;-65
2023/03/04 00:28:58;;;;;;;;;1.50;1.00;;;;;6.65;66.05;102717.00;5012735;28;11114;-65
2023/03/04 00:31:25;;;;;;;;;2.00;0.00;;;;;6.65;66.13;102721.50;5010516;28;11069;-64
2023/03/04 00:33:51;;;;;;;;;0.75;0.75;;;;;6.65;65.93;102718.81;5009583;28;10878;-66
2023/03/04 00:36:17;;;;;;;;;0.00;0.00;;;;;6.66;66.30;102707.13;5009998;28;11118;-66
2023/03/04 00:38:44;;;;;;;;;4.00;1.50;;;;;6.66;66.30;102715.16;5012750;28;11078;-63
2023/03/04 00:41:10;;;;;;;;;0.00;0.00;;;;;6.72;66.81;102717.34;5013248;28;11269;-65
2023/03/04 00:43:39;;;;;;;;;0.50;0.50;;;;;6.73;65.77;102707.50;5011004;28;11009;-65
2023/03/04 00:46:06;;;;;;;;;1.00;1.00;;;;;6.72;65.64;102714.66;5013259;28;11764;-66
2023/03/04 00:48:32;;;;;;;;;4.00;1.25;;;;;6.67;65.88;102712.34;5003516;28;11097;-65
2023/03/04 00:50:59;;;;;;;;;0.75;0.75;;;;;6.65;66.03;102708.13;5016438;28;11110;-65
2023/03/04 00:53:25;;;;;;;;;3.50;1.75;;;;;6.66;65.52;102720.53;5008438;28;11046;-67
2023/03/04 00:55:52;;;;;;;;;0.00;0.00;;;;;6.66;65.03;102715.16;5012737;28;11183;-66
2023/03/04 00:58:18;;;;;;;;;1.00;1.00;;;;;6.71;65.78;102712.13;5010832;28;11043;-65
2023/03/04 01:00:44;;;;;;;;;2.75;1.00;;;;;6.63;65.34;102720.75;5002107;28;11222;-66
2023/03/04 01:03:11;;;;;;;;;5.25;2.00;;;;;6.57;65.09;102721.25;5019118;28;11241;-66
2023/03/04 01:05:38;;;;;;;;;1.00;1.00;;;;;6.51;65.43;102713.69;5000665;28;11506;-67
2023/03/04 01:08:04;;;;;;;;;0.00;0.00;;;;;6.56;65.36;102719.53;5011802;28;11175;-66
2023/03/04 01:10:31;;;;;;;;;0.25;0.25;;;;;6.55;65.32;102724.03;5014282;28;11134;-66
2023/03/04 01:12:58;;;;;;;;;0.75;0.75;;;;;6.53;64.94;102719.81;5016316;28;11073;-64
2023/03/04 01:15:25;;;;;;;;;3.25;1.00;;;;;6.49;65.41;102716.50;5010056;28;11113;-66
2023/03/04 01:17:52;;;;;;;;;0.25;0.25;;;;;6.52;65.43;102718.91;5019325;28;11078;-65
2023/03/04 01:20:18;;;;;;;;;2.00;0.00;;;;;6.52;64.68;102707.38;4993067;28;11106;-66
2023/03/04 01:22:45;;;;;;;;;0.00;0.00;;;;;6.51;64.64;102706.53;4997990;28;11144;-66
2023/03/04 01:25:13;;;;;;;;;0.00;0.00;;;;;6.43;63.96;102714.31;5011842;28;11098;-66
2023/03/04 01:27:39;;;;;;;;;0.00;0.00;;;;;6.43;64.52;102709.81;5000907;28;11174;-65
2023/03/04 01:30:06;;;;;;;;;2.50;1.75;;;;;6.40;64.66;102701.16;5002426;28;11004;-65
2023/03/04 01:32:33;;;;;;;;;4.75;2.00;;;;;6.37;64.16;102704.94;5008755;28;10949;-64
2023/03/04 01:34:59;;;;;;;;;1.00;1.00;;;;;6.30;63.62;102703.72;5022814;28;11058;-66
2023/03/04 01:37:26;;;;;;;;;0.25;0.25;;;;;6.25;63.35;102692.53;5007214;28;11038;-67
2023/03/04 01:39:52;;;;;;;;;0.25;0.25;;;;;6.30;64.18;102694.84;5007915;28;11126;-65
2023/03/04 01:42:22;;;;;;;;;1.00;1.00;;;;;6.38;63.50;102687.94;4992341;28;11187;-66
2023/03/04 01:44:50;;;;;;;;;0.50;0.50;;;;;6.47;64.01;102694.38;5023317;28;11163;-65
2023/03/04 01:47:18;;;;;;;;;0.00;0.00;;;;;6.44;63.82;102689.25;5007993;28;11146;-63
2023/03/04 01:49:50;;;;;;;;;3.75;1.00;;;;;6.41;63.56;102695.72;5011774;28;11097;-65
2023/03/04 01:52:16;;;;;;;;;1.00;0.00;;;;;6.44;63.82;102686.56;5012500;28;11093;-65
2023/03/04 01:54:43;;;;;;;;;1.75;1.00;;;;;6.44;63.67;102678.56;5004410;28;11052;-64
2023/03/04 01:57:18;;;;;;;;;1.75;0.75;;;;;6.40;64.06;102688.66;5011433;28;11290;-65
2023/03/04 01:59:46;;;;;;;;;0.00;0.00;;;;;6.44;63.43;102681.22;5010893;28;11181;-64
2023/03/04 02:02:13;;;;;;;;;0.00;0.00;;;;;6.47;64.48;102675.63;5009552;28;11232;-65
2023/03/04 02:04:41;;;;;;;;;0.00;0.00;;;;;6.49;64.23;102672.84;5001624;28;11491;-64
2023/03/04 02:07:08;;;;;;;;;1.50;0.00;;;;;6.50;64.58;102667.38;5007179;28;11159;-64
2023/03/04 02:09:36;;;;;;;;;1.00;1.00;;;;;6.51;64.36;102660.19;4997596;28;11148;-65
2023/03/04 02:12:03;;;;;;;;;0.00;0.00;;;;;6.45;64.14;102666.91;5009009;28;11451;-66
2023/03/04 02:14:30;;;;;;;;;0.50;0.50;;;;;6.46;64.70;102655.22;5006807;28;11772;-63
2023/03/04 02:16:56;;;;;;;;;0.00;0.00;;;;;6.36;64.42;102649.75;4999177;28;11037;-65
2023/03/04 02:19:23;;;;;;;;;0.00;0.00;;;;;6.39;64.28;102646.81;4999777;28;11171;-68
2023/03/04 02:21:49;;;;;;;;;0.00;0.00;;;;;6.33;64.14;102644.66;5005509;28;11124;-69
2023/03/04 02:24:29;;;;;;;;;0.00;0.00;;;;;6.40;64.13;102635.16;5023485;28;11190;-68
2023/03/04 02:26:57;;;;;;;;;1.00;1.00;;;;;6.46;63.64;102632.97;5006244;28;11789;-69
2023/03/04 02:29:24;;;;;;;;;1.50;0.00;;;;;6.49;64.16;102625.56;4991443;28;11109;-68
2023/03/04 02:31:52;;;;;;;;;0.00;0.00;;;;;6.53;63.85;102631.50;4990388;28;11096;-66
2023/03/04 02:34:31;;;;;;;;;3.00;0.50;;;;;6.49;64.55;102617.53;5022784;28;10958;-66
2023/03/04 02:36:58;;;;;;;;;1.00;1.00;;;;;6.48;64.57;102621.16;5008928;28;10961;-68
2023/03/04 02:39:47;;;;;;;;;2.00;2.00;;;;;6.44;64.64;102609.88;5008702;28;11117;-68
2023/03/04 02:42:14;;;;;;;;;1.00;1.00;;;;;6.45;64.43;102610.72;5009791;28;11187;-69
2023/03/04 02:44:45;;;;;;;;;0.00;0.00;;;;;6.43;65.06;102605.47;5009029;28;11053;-69
2023/03/04 02:47:16;;;;;;;;;0.75;0.75;;;;;6.46;64.67;102617.75;5016684;28;10956;-68
2023/03/04 02:49:43;;;;;;;;;0.00;0.00;;;;;6.47;64.86;102614.09;5008710;28;11647;-68
2023/03/04 02:52:17;;;;;;;;;1.00;0.00;;;;;6.46;65.46;102606.22;5009849;28;11085;-68
2023/03/04 02:54:43;;;;;;;;;4.00;0.50;;;;;6.39;64.76;102606.69;5015347;28;11140;-68
2023/03/04 02:57:12;;;;;;;;;1.00;1.00;;;;;6.35;65.30;102597.22;5003666;28;11144;-67
2023/03/04 02:59:41;;;;;;;;;0.25;0.25;;;;;6.32;64.71;102612.66;4990465;28;11206;-66
2023/03/04 03:02:12;;;;;;;;;0.00;0.00;;;;;6.22;65.04;102595.66;5001522;28;11194;-69
2023/03/04 03:04:40;;;;;;;;;0.00;0.00;;;;;6.15;65.61;102600.63;5007080;28;11792;-69
2023/03/04 03:07:10;;;;;;;;;0.00;0.00;;;;;6.17;65.97;102596.03;5009431;28;11455;-69
2023/03/04 03:09:36;;;;;;;;;0.50;0.50;;;;;6.21;65.75;102599.31;5009095;28;11273;-69
2023/03/04 03:12:03;;;;;;;;;0.00;0.00;;;;;6.26;65.72;102597.13;5009634;28;11220;-68
2023/03/04 03:14:31;;;;;;;;;1.00;1.00;;;;;6.27;65.95;102588.97;5004037;28;11228;-69
2023/03/04 03:16:58;;;;;;;;;1.00;0.00;;;;;6.30;65.26;102587.88;5016418;28;11449;-67
2023/03/04 03:19:24;;;;;;;;;0.00;0.00;;;;;6.24;66.08;102596.38;5010173;28;11191;-67
2023/03/04 03:21:52;;;;;;;;;1.00;1.00;;;;;6.29;66.63;102595.06;5005869;28;11470;-68
2023/03/04 03:24:19;;;;;;;;;0.00;0.00;;;;;6.36;66.46;102592.72;4994561;28;11555;-69
2023/03/04 03:26:45;;;;;;;;;0.00;0.00;;;;;6.40;66.25;102592.38;5010336;28;13021;-68
2023/03/04 03:29:13;;;;;;;;;1.00;1.00;;;;;6.35;66.00;102589.19;5011968;28;11048;-68
2023/03/04 03:31:39;;;;;;;;;0.00;0.00;;;;;6.33;65.89;102591.16;5013300;28;10929;-69
2023/03/04 03:34:06;;;;;;;;;0.00;0.00;;;;;6.30;66.39;102583.38;5020604;28;11021;-66
2023/03/04 03:36:32;;;;;;;;;0.00;0.00;;;;;6.34;66.28;102590.19;5032924;28;11258;-68
2023/03/04 03:38:59;;;;;;;;;0.00;0.00;;;;;6.36;66.89;102590.91;5034052;28;11190;-69
2023/03/04 03:41:26;;;;;;;;;0.00;0.00;;;;;6.41;66.83;102588.72;5019787;28;11477;-67
2023/03/04 03:43:52;;;;;;;;;0.00;0.00;;;;;6.41;66.85;102591.38;5014131;28;11127;-69
2023/03/04 03:46:18;;;;;;;;;0.00;0.00;;;;;6.42;66.78;102593.09;5012526;28;11115;-67
2023/03/04 03:48:45;;;;;;;;;0.00;0.00;;;;;6.43;66.83;102591.25;5004908;28;11481;-69
2023/03/04 03:51:11;;;;;;;;;1.00;0.00;;;;;6.39;67.68;102596.00;5006708;28;11265;-68
2023/03/04 03:53:38;;;;;;;;;0.50;0.00;;;;;6.42;67.68;102595.75;5006583;28;11309;-69
2023/03/04 03:56:05;;;;;;;;;1.00;0.00;;;;;6.41;67.70;102591.38;5010911;28;11137;-68
2023/03/04 03:58:31;;;;;;;;;2.50;1.00;;;;;6.37;67.17;102595.28;5013779;28;11488;-67
2023/03/04 04:00:57;;;;;;;;;0.75;0.00;;;;;6.40;67.48;102597.72;5013832;28;11117;-68
2023/03/04 04:03:24;;;;;;;;;0.75;0.75;;;;;6.40;67.12;102587.03;5012879;28;11105;-68
2023/03/04 04:05:51;;;;;;;;;1.00;0.00;;;;;6.37;67.27;102592.63;5006536;28;11101;-67
2023/03/04 04:08:17;;;;;;;;;0.00;0.00;;;;;6.40;66.93;102589.69;5018685;28;11121;-70
2023/03/04 04:10:44;;;;;;;;;2.50;0.00;;;;;6.39;66.98;102589.81;5009009;28;11049;-70
2023/03/04 04:13:10;;;;;;;;;0.75;0.75;;;;;6.30;66.59;102585.19;5013816;28;11465;-68
2023/03/04 04:15:37;;;;;;;;;0.00;0.00;;;;;6.32;66.58;102586.78;5013396;28;11186;-69
2023/03/04 04:18:05;;;;;;;;;0.00;0.00;;;;;6.37;66.60;102592.63;5013651;28;11117;-69
2023/03/04 04:20:32;;;;;;;;;0.50;0.50;;;;;6.34;66.35;102589.34;5009323;28;11076;-67
2023/03/04 04:22:58;;;;;;;;;0.00;0.00;;;;;6.35;66.02;102583.00;5009139;28;11460;-68
2023/03/04 04:25:25;;;;;;;;;0.00;0.00;;;;;6.32;66.23;102586.78;5005881;28;11553;-68
2023/03/04 04:27:51;;;;;;;;;0.75;0.00;;;;;6.33;66.58;102585.81;5010151;28;11464;-69
2023/03/04 04:30:18;;;;;;;;;0.75;0.00;;;;;6.36;66.63;102582.91;5013230;28;11217;-67
2023/03/04 04:32:44;;;;;;;;;1.00;0.25;;;;;6.38;66.67;102578.25;5013782;28;11189;-68
2023/03/04 04:35:11;;;;;;;;;0.50;0.50;;;;;6.41;67.03;102585.19;5011835;28;11298;-69
2023/03/04 04:37:37;;;;;;;;;2.00;0.75;;;;;6.42;66.45;102584.22;5014329;28;11106;-68
2023/03/04 04:40:04;;;;;;;;;0.00;0.00;;;;;6.39;67.11;102582.63;5012691;28;11136;-66
2023/03/04 04:42:31;;;;;;;;;1.50;0.25;;;;;6.38;67.30;102586.28;5003293;28;11906;-68
2023/03/04 04:44:57;;;;;;;;;1.00;0.00;;;;;6.41;68.15;102582.53;4993202;28;11218;-69
2023/03/04 04:47:24;;;;;;;;;1.25;1.25;;;;;6.43;67.91;102581.41;4993590;28;11075;-69
2023/03/04 04:49:50;;;;;;;;;0.00;0.00;;;;;6.38;67.87;102588.09;4994281;28;11174;-66
2023/03/04 04:52:17;;;;;;;;;0.00;0.00;;;;;6.37;68.21;102592.63;5012010;28;11123;-68
2023/03/04 04:54:43;;;;;;;;;0.00;0.00;;;;;6.35;68.35;102596.38;5009436;28;11135;-69
2023/03/04 04:57:10;;;;;;;;;1.00;1.00;;;;;6.32;68.83;102596.63;5012870;28;11111;-69
2023/03/04 04:59:36;;;;;;;;;0.00;0.00;;;;;6.29;69.17;102595.06;5012252;28;11207;-69
2023/03/04 05:02:03;;;;;;;;;0.00;0.00;;;;;6.31;69.50;102594.91;5012870;28;11113;-68
2023/03/04 05:04:29;;;;;;;;;1.00;0.00;;;;;6.28;68.93;102593.38;5010884;28;11210;-68
2023/03/04 05:06:55;;;;;;;;;0.25;0.25;;;;;6.24;70.48;102604.41;5012539;28;11572;-69
2023/03/04 05:09:22;;;;;;;;;0.00;0.00;;;;;6.23;70.49;102598.19;5012694;28;11557;-69
2023/03/04 05:11:49;;;;;;;;;1.00;1.00;;;;;6.19;70.91;102594.06;5013699;28;11125;-69
2023/03/04 05:14:15;;;;;;;;;1.00;0.00;;;;;6.25;71.16;102593.59;5011845;28;11899;-68
2023/03/04 05:16:42;;;;;;;;;0.00;0.00;;;;;6.29;71.77;102597.72;5014699;28;11312;-68
2023/03/04 05:19:08;;;;;;;;;0.00;0.00;;;;;6.32;71.63;102597.50;5015831;28;12177;-68
2023/03/04 05:21:35;;;;;;;;;1.50;1.00;;;;;6.30;71.39;102596.75;5012723;28;11531;-69
2023/03/04 05:24:01;;;;;;;;;1.00;1.00;;;;;6.34;72.00;102600.88;5012397;28;11130;-68
2023/03/04 05:26:28;;;;;;;;;2.00;0.75;;;;;6.37;71.80;102591.75;5010021;28;11506;-69
2023/03/04 05:28:54;;;;;;;;;0.50;0.00;;;;;6.37;70.92;102597.97;4992527;28;11505;-69
2023/03/04 05:31:21;;;;;;;;;2.00;0.00;;;;;6.39;71.61;102597.81;5007854;28;11485;-68
2023/03/04 05:33:47;;;;;;;;;1.00;0.00;;;;;6.39;71.31;102596.00;5046912;22;11600;-65
2023/03/04 05:36:14;;;;;;;;;0.00;0.00;;;;;6.34;71.54;102590.19;5031198;28;11560;-66
2023/03/04 05:38:40;;;;;;;;;0.00;0.00;;;;;6.35;71.64;102599.91;5031500;28;11426;-66
2023/03/04 05:41:07;;;;;;;;;0.00;0.00;;;;;6.37;71.44;102591.75;5027896;28;11097;-66
2023/03/04 05:43:34;;;;;;;;;2.00;1.00;;;;;6.40;71.24;102596.84;5019825;28;11232;-65
2023/03/04 05:46:02;;;;;;;;;1.00;0.00;;;;;6.42;71.17;102593.09;5008877;28;11214;-66
2023/03/04 05:48:29;;;;;;;;;0.50;0.00;;;;;6.43;70.84;102596.59;5011339;28;12130;-65
2023/03/04 05:50:58;;;;;;;;;1.00;0.00;;;;;6.43;71.04;102600.13;5011381;28;11256;-65
2023/03/04 05:53:25;;;;;;;;;0.75;0.75;;;;;6.36;70.96;102592.72;5011141;28;11448;-66
2023/03/04 05:55:52;;;;;;;;;0.00;0.00;;;;;6.37;70.74;102595.28;5009568;28;11434;-66
2023/03/04 05:58:19;;;;;;;;;0.25;0.00;;;;;6.38;70.69;102594.31;5005213;28;12502;-66
2023/03/04 06:00:46;;;;;;;;;0.00;0.00;;;;;6.39;70.78;102590.66;5010857;28;11148;-66
2023/03/04 06:03:15;;;;;;;;;0.00;0.00;;;;;6.39;70.46;102587.97;5011077;28;11858;-65
2023/03/04 06:05:42;;;;;;;;;1.00;0.00;;;;;6.38;70.02;102582.75;5009675;28;11030;-66
2023/03/04 06:08:10;;;;;;;;;0.00;0.00;;;;;6.35;70.18;102583.84;5010991;28;11077;-66
2023/03/04 06:10:38;;;;;;;;;0.00;0.00;;;;;6.40;70.17;102589.69;5009538;28;11223;-65
2023/03/04 06:13:05;;;;;;;;;0.00;0.00;;;;;6.40;69.52;102586.16;5009579;28;11138;-65
2023/03/04 06:15:32;;;;;;;;;4.00;3.00;;;;;6.33;69.71;102593.84;5008948;28;11247;-65
2023/03/04 06:17:58;;;;;;;;;2.50;2.50;;;;;6.27;70.86;102591.63;5010902;28;11448;-64
2023/03/04 06:20:25;;;;;;;;;4.00;1.50;;;;;6.29;70.86;102589.72;5010220;28;11487;-66
2023/03/04 06:22:51;;;;;;;;;0.00;0.00;;;;;6.27;70.76;102593.47;5010908;28;12119;-65
2023/03/04 06:25:18;;;;;;;;;6.75;6.75;;;;;6.26;72.03;102592.63;5009221;28;11196;-65
2023/03/04 06:27:44;;;;;;;;;15.25;14.00;;;;;6.25;72.34;102593.59;5008921;28;11478;-66
2023/03/04 06:30:11;;;;;;;;;5.50;5.25;;;;;6.27;72.75;102596.13;5009510;28;11518;-66
2023/03/04 06:32:37;;;;;;;;;0.00;0.00;;;;;6.27;72.44;102601.50;5010233;28;11443;-64
2023/03/04 06:35:05;;;;;;;;;0.75;0.75;;;;;6.32;72.89;102594.81;5010457;28;11511;-65
2023/03/04 06:37:31;;;;;;;;;1.00;0.75;;;;;6.32;73.03;102593.94;5010649;28;11446;-65
2023/03/04 06:39:58;;;;;;;;;0.00;0.00;;;;;6.32;73.08;102600.16;5010025;28;12203;-66
2023/03/04 06:42:24;;;;;;;;;4.00;2.50;;;;;6.30;73.59;102603.94;5010750;28;12067;-66
2023/03/04 06:44:50;;;;;;;;;0.00;0.00;;;;;6.25;73.34;102608.78;5010005;28;12207;-65
2023/03/04 06:47:17;;;;;;;;;1.00;0.00;;;;;6.20;73.39;102603.81;5008668;28;11105;-66
2023/03/04 06:49:44;;;;;;;;;0.00;0.00;;;;;6.19;73.71;102610.97;5010013;28;12013;-65
2023/03/04 06:52:11;;;;;;;;;0.25;0.00;;;;;6.22;73.75;102609.03;5009317;28;11123;-65
2023/03/04 06:54:38;;;;;;;;;1.00;1.00;;;;;6.17;73.65;102606.72;5009739;28;11309;-66
2023/03/04 06:57:06;;;;;;;;;0.00;0.00;;;;;6.18;73.78;102605.75;5009469;28;11436;-65
2023/03/04 06:59:32;;;;;;;;;10.00;9.00;;;;;6.20;74.27;102609.16;5010337;28;11202;-66
2023/03/04 07:01:59;;;;;;;;;6.00;5.00;;;;;6.27;74.19;102604.16;5010021;28;12246;-66
2023/03/04 07:04:25;;;;;;;;;4.00;4.00;;;;;6.31;73.64;102609.13;5009012;28;11483;-66
2023/03/04 07:06:52;;;;;;;;;1.25;1.00;;;;;6.30;73.16;102602.09;5003868;28;11477;-66
2023/03/04 07:09:18;;;;;;;;;0.00;0.00;;;;;6.32;73.47;102605.50;5013613;28;11203;-66
2023/03/04 07:11:45;;;;;;;;;0.00;0.00;;;;;6.36;73.30;102606.97;5010216;28;11439;-66
2023/03/04 07:14:11;;;;;;;;;0.50;0.50;;;;;6.43;73.64;102601.97;5009377;28;11479;-66
2023/03/04 07:16:38;;;;;;;;;0.00;0.00;;;;;6.44;72.99;102609.00;5009871;28;11482;-66
2023/03/04 07:19:04;;;;;;;;;0.00;0.00;;;;;6.43;72.79;102601.97;5008741;28;11262;-67
2023/03/04 07:21:31;;;;;;;;;0.00;0.00;;;;;6.48;73.34;102609.59;5004809;28;11493;-66
2023/03/04 07:23:57;;;;;;;;;2.00;1.00;;;;;6.47;73.14;102603.41;5010131;28;11547;-67
2023/03/04 07:26:24;;;;;;;;;0.00;0.00;;;;;6.50;72.83;102613.88;5008582;28;11219;-67
2023/03/04 07:28:53;;;;;;;;;0.00;0.00;;;;;6.53;72.55;102612.78;5022681;28;11601;-67
2023/03/04 07:31:28;;;;;;;;;0.00;0.00;;;;;6.49;72.46;102614.00;5006409;28;11113;-66
2023/03/04 07:34:01;;;;;;;;;0.00;0.00;;;;;6.46;72.85;102620.44;5006698;28;11465;-66
2023/03/04 07:36:28;;;;;;;;;1.00;1.00;;;;;6.47;73.60;102621.28;5009329;28;11138;-66
2023/03/04 07:38:55;;;;;;;;;1.75;1.00;;;;;6.50;73.86;102624.56;5010031;28;11335;-66
2023/03/04 07:41:24;;;;;;;;;2.00;1.00;;;;;6.50;73.70;102627.25;5007415;28;11520;-67
2023/03/04 07:43:51;;;;;;;;;0.00;0.00;;;;;6.54;74.08;102625.19;5009396;28;11487;-66
2023/03/04 07:46:18;;;;;;;;;1.00;0.25;;;;;6.55;73.64;102622.38;5009607;28;11152;-66
2023/03/04 07:48:45;;;;;;;;;0.50;0.50;;;;;6.55;73.73;102625.03;5009077;28;11089;-65
2023/03/04 07:51:13;;;;;;;;;0.00;0.00;;;;;6.60;73.99;102633.56;5008890;28;11139;-67
2023/03/04 07:53:42;;;;;;;;;1.50;1.00;;;;;6.69;74.23;102624.78;5009712;28;11122;-65
2023/03/04 07:56:12;;;;;;;;;1.00;1.00;;;;;6.71;73.90;102619.28;5008981;28;11335;-66
2023/03/04 07:58:39;;;;;;;;;1.50;0.00;;;;;6.72;73.41;102626.34;5009807;28;12488;-66
2023/03/04 08:01:20;;;;;;;;;0.00;0.00;;;;;6.68;73.82;102625.75;5010089;28;11214;-66
2023/03/04 08:03:46;;;;;;;;;1.00;1.00;;;;;6.72;74.22;102628.16;5007323;28;11105;-66
2023/03/04 08:06:16;;;;;;;;;1.75;0.50;;;;;6.75;73.69;102630.59;5005619;28;11144;-65
2023/03/04 08:08:43;;;;;;;;;0.00;0.00;;;;;6.78;73.83;102633.88;5004154;28;11118;-65
2023/03/04 08:11:17;;;;;;;;;0.00;0.00;;;;;6.79;73.76;102634.72;5007054;28;11324;-64
2023/03/04 08:13:43;;;;;;;;;1.00;1.00;;;;;6.80;74.07;102631.91;5008146;28;11145;-65
2023/03/04 08:16:18;;;;;;;;;1.00;1.00;;;;;6.89;73.64;102635.69;5006495;28;11725;-64
2023/03/04 08:18:47;;;;;;;;;0.00;0.00;;;;;6.91;74.47;102637.25;5009665;28;11045;-67
2023/03/04 08:21:18;;;;;;;;;1.50;0.50;;;;;6.98;74.11;102634.06;5007096;28;11090;-66
2023/03/04 08:23:45;;;;;;;;;0.00;0.00;;;;;7.06;74.12;102639.66;5010354;28;10961;-65
2023/03/04 08:26:16;;;;;;;;;0.75;0.75;;;;;7.11;73.90;102640.09;5008286;28;10949;-65
2023/03/04 08:28:44;;;;;;;;;1.00;1.00;;;;;7.11;73.71;102640.09;5012833;28;11003;-65
2023/03/04 08:31:12;;;;;;;;;0.00;0.00;;;;;7.13;74.27;102639.03;5011540;28;11030;-65
2023/03/04 08:33:39;;;;;;;;;0.75;0.75;;;;;7.14;73.82;102639.88;5011385;28;10967;-65
2023/03/04 08:36:06;;;;;;;;;0.75;0.00;;;;;7.22;74.89;102631.19;5010442;28;11686;-65
2023/03/04 08:38:33;;;;;;;;;1.00;1.00;;;;;7.49;74.70;102641.41;5011640;28;11146;-65
2023/03/04 08:41:00;;;;;;;;;1.00;1.00;;;;;7.60;74.36;102647.53;5013667;28;11825;-65
2023/03/04 08:43:26;;;;;;;;;1.00;1.00;;;;;7.70;73.42;102639.59;5011974;28;10897;-65
2023/03/04 08:45:53;;;;;;;;;2.00;1.00;;;;;7.64;73.34;102634.75;5009832;28;10981;-66
2023/03/04 08:48:20;;;;;;;;;0.00;0.00;;;;;7.69;73.59;102637.88;5012682;28;10945;-66
2023/03/04 08:50:48;;;;;;;;;1.00;1.00;;;;;7.68;73.69;102637.03;5010388;28;11033;-66
2023/03/04 08:53:16;;;;;;;;;0.00;0.00;;;;;7.66;73.57;102641.69;5009956;28;10872;-66
2023/03/04 08:55:42;;;;;;;;;0.00;0.00;;;;;7.61;73.96;102638.53;5012014;28;10962;-66
2023/03/04 08:58:10;;;;;;;;;0.50;0.50;;;;;7.53;73.61;102640.16;5011995;28;10901;-66
2023/03/04 09:00:41;;;;;;;;;0.00;0.00;;;;;7.51;74.14;102636.78;5012755;28;10743;-65
2023/03/04 09:03:13;;;;;;;;;0.00;0.00;;;;;7.54;74.89;102639.19;5012111;28;11524;-66
2023/03/04 09:05:40;;;;;;;;;0.00;0.00;;;;;7.55;74.24;102643.56;5011352;28;10978;-66
2023/03/04 09:08:07;;;;;;;;;4.00;4.00;;;;;7.50;74.64;102640.44;5010731;28;10705;-68
2023/03/04 09:10:33;;;;;;;;;1.00;1.00;;;;;7.45;74.69;102640.81;5012216;28;11099;-66
2023/03/04 09:13:00;;;;;;;;;0.00;0.00;;;;;7.41;75.64;102642.03;5011381;28;10891;-67
2023/03/04 09:15:27;;;;;;;;;1.00;0.25;;;;;7.33;75.46;102645.38;5004453;28;11484;-66
2023/03/04 09:17:54;;;;;;;;;0.00;0.00;;;;;7.29;76.64;102635.91;5011539;28;11652;-67
2023/03/04 09:20:22;;;;;;;;;0.00;0.00;;;;;7.28;76.38;102630.66;5011650;28;10998;-67
2023/03/04 09:22:51;;;;;;;;;0.50;0.50;;;;;7.36;77.12;102634.41;5008263;28;11018;-66
2023/03/04 09:25:18;;;;;;;;;0.00;0.00;;;;;7.45;77.15;102627.41;5002909;28;10974;-67
2023/03/04 09:27:44;;;;;;;;;2.00;0.00;;;;;7.54;77.39;102623.97;5011324;28;10886;-68
2023/03/04 09:30:11;;;;;;;;;1.25;0.50;;;;;7.64;76.45;102632.06;5008581;28;10972;-66
2023/03/04 09:32:38;;;;;;;;;0.00;0.00;;;;;7.72;76.37;102634.94;5010616;28;11039;-66
2023/03/04 09:35:06;;;;;;;;;0.00;0.00;;;;;7.76;75.26;102631.00;5009952;28;10810;-66
2023/03/04 09:37:32;;;;;;;;;0.25;0.25;;;;;7.75;75.83;102632.00;5011612;28;10762;-66
2023/03/04 09:39:59;;;;;;;;;0.00;0.00;;;;;7.82;75.38;102624.25;5011222;28;10825;-66
2023/03/04 09:42:46;;;;;;;;;0.00;0.00;;;;;7.85;74.49;102629.34;5003830;28;10737;-67
2023/03/04 09:45:19;;;;;;;;;1.25;0.00;;;;;7.86;74.26;102631.09;5010493;28;10800;-66
2023/03/04 09:47:49;;;;;;;;;0.00;0.00;;;;;7.89;73.59;102620.91;5009114;28;10688;-65
2023/03/04 09:50:17;;;;;;;;;0.25;0.25;;;;;7.93;72.79;102625.03;5009496;28;10847;-66
2023/03/04 09:53:03;;;;;;;;;0.00;0.00;;;;;7.86;72.69;102625.72;5010980;28;10846;-66
2023/03/04 09:55:40;;;;;;;;;0.00;0.00;;;;;7.93;72.95;102611.63;5008769;28;11404;-67
2023/03/04 09:58:25;;;;;;;;;0.00;0.00;;;;;7.98;71.84;102615.72;5002065;28;10920;-66
2023/03/04 10:01:02;;;;;;;;;0.00;0.00;;;;;7.87;71.76;102614.00;5010832;28;11600;-67
2023/03/04 10:03:42;;;;;;;;;0.00;0.00;;;;;7.85;72.13;102608.75;5008904;28;10809;-67
2023/03/04 10:06:15;;;;;;;;;0.00;0.00;;;;;7.80;72.02;102608.31;5008250;28;10828;-66
2023/03/04 10:08:51;;;;;;;;;0.00;0.00;;;;;7.80;73.53;102621.72;5010347;28;11728;-66
2023/03/04 10:11:36;;;;;;;;;0.00;0.00;;;;;7.79;74.01;102620.03;5010948;28;10787;-66
2023/03/04 10:14:15;;;;;;;;;1.00;0.00;;;;;7.87;74.38;102606.81;5008880;28;11556;-66
2023/03/04 10:16:49;;;;;;;;;4.00;0.25;;;;;7.96;74.99;102604.31;5008013;28;10952;-66
2023/03/04 10:19:35;;;;;;;;;0.00;0.00;;;;;8.02;74.71;102603.75;5010141;28;10843;-66
2023/03/04 10:22:16;;;;;;;;;0.00;0.00;;;;;8.06;73.75;102608.75;5004001;28;10824;-67
2023/03/04 10:24:45;;;;;;;;;0.00;0.00;;;;;8.18;73.55;102599.63;5005112;28;10765;-66
2023/03/04 10:27:17;;;;;;;;;0.00;0.00;;;;;8.28;73.41;102602.31;5010478;28;10825;-67
2023/03/04 10:29:44;;;;;;;;;0.00;0.00;;;;;8.32;73.08;102595.69;5006967;28;10601;-67
2023/03/04 10:32:16;;;;;;;;;0.00;0.00;;;;;8.50;72.14;102597.75;5005480;28;10657;-66
2023/03/04 10:34:43;;;;;;;;;0.00;0.00;;;;;8.56;71.66;102592.69;5006585;28;10689;-66
2023/03/04 10:37:10;;;;;;;;;0.00;0.00;;;;;8.58;72.04;102595.22;5008380;28;10586;-67
2023/03/04 10:39:41;;;;;;;;;1.00;1.00;;;;;8.50;71.83;102603.13;5009804;28;10646;-66
2023/03/04 10:42:13;;;;;;;;;0.00;0.00;;;;;8.39;72.66;102604.09;5010609;28;10526;-66
2023/03/04 10:44:52;;;;;;;;;0.00;0.00;;;;;8.15;74.25;102605.25;5008401;28;10663;-66
2023/03/04 10:47:19;;;;;;;;;0.25;0.25;;;;;8.05;74.89;102607.03;5009550;28;10532;-67
2023/03/04 10:49:52;;;;;;;;;0.00;0.00;;;;;8.00;75.87;102609.25;5008606;28;10521;-66
2023/03/04 10:52:29;;;;;;;;;0.00;0.00;;;;;8.02;76.00;102614.47;5010353;28;11405;-66
2023/03/04 10:55:13;;;;;;;;;0.00;0.00;;;;;8.05;76.33;102606.19;5009672;28;10763;-66
2023/03/04 10:57:43;;;;;;;;;0.00;0.00;;;;;8.10;76.32;102606.63;5005560;28;10590;-66
2023/03/04 11:00:22;;;;;;;;;0.00;0.00;;;;;8.05;76.39;102608.84;5009554;28;10666;-66
2023/03/04 11:02:49;;;;;;;;;1.00;0.00;;;;;8.05;76.78;102608.84;5005880;28;10526;-67
2023/03/04 11:05:22;;;;;;;;;1.00;0.00;;;;;8.03;77.34;102600.97;5009546;28;10590;-66
2023/03/04 11:07:52;;;;;;;;;0.00;0.00;;;;;8.10;77.72;102604.81;5010015;28;10557;-67
2023/03/04 11:10:42;;;;;;;;;0.00;0.00;;;;;8.08;76.70;102608.59;4994984;28;10574;-64
2023/03/04 11:13:23;;;;;;;;;0.00;0.00;;;;;8.00;77.34;102601.22;5023713;28;10734;-67
2023/03/04 11:15:51;;;;;;;;;0.00;0.00;;;;;8.14;78.54;102597.31;5007469;28;10863;-66
2023/03/04 11:18:25;;;;;;;;;0.00;0.00;;;;;8.25;78.42;102594.53;5005218;28;10714;-66
2023/03/04 11:20:54;;;;;;;;;1.50;0.00;;;;;8.17;77.56;102597.91;5000891;28;10501;-66
2023/03/04 11:23:45;;;;;;;;;0.00;0.00;;;;;8.05;77.53;102596.28;5009811;28;10605;-67
2023/03/04 11:26:20;;;;;;;;;1.00;1.00;;;;;8.04;77.86;102593.75;5008890;28;10588;-67
2023/03/04 11:29:08;;;;;;;;;0.25;0.25;;;;;7.89;77.92;102602.16;5008759;28;10652;-66
2023/03/04 11:31:48;;;;;;;;;1.00;1.00;;;;;7.75;78.78;102601.66;5006572;28;10790;-66
2023/03/04 11:34:24;;;;;;;;;1.00;1.00;;;;;7.75;79.41;102601.66;5034989;22;10711;-66
2023/03/04 11:36:56;;;;;;;;;0.25;0.00;;;;;7.82;79.61;102603.69;5029143;28;10782;-68
2023/03/04 11:39:33;;;;;;;;;0.50;0.00;;;;;7.89;78.96;102593.25;5015328;28;10680;-68
2023/03/04 11:42:06;;;;;;;;;0.00;0.00;;;;;7.96;79.14;102596.25;5007011;28;10748;-70